sensor_id;sensor_type;location;lat;lon;timestamp;P1;durP1;ratioP1;P2;durP2;ratioP2
75207;SDS011;63795;55.684;37.864;2023-08-24T00:00:45;5.63;;;2.55;;
75207;SDS011;63795;55.684;37.864;2023-08-24T00:05:46;5.97;;;2.13;;
75207;SDS011;63795;55.684;37.864;2023-08-24T00:10:48;5.07;;;2.90;;
75207;SDS011;63795;55.684;37.864;2023-08-24T00:15:48;7.32;;;2.75;;
75207;SDS011;63795;55.684;37.864;2023-08-24T00:20:49;7.07;;;4.50;;
75207;SDS011;63795;55.684;37.864;2023-08-24T00:25:49;5.47;;;2.17;;
75207;SDS011;63795;55.684;37.864;2023-08-24T00:30:50;6.77;;;4.20;;
75207;SDS011;63795;55.684;37.864;2023-08-24T00:35:50;6.57;;;2.85;;
75207;SDS011;63795;55.684;37.864;2023-08-24T00:40:51;7.45;;;2.85;;
75207;SDS011;63795;55.684;37.864;2023-08-24T00:45:55;7.68;;;3.40;;
75207;SDS011;63795;55.684;37.864;2023-08-24T00:50:58;13.20;;;5.25;;
75207;SDS011;63795;55.684;37.864;2023-08-24T00:56:00;11.93;;;5.18;;
75207;SDS011;63795;55.684;37.864;2023-08-24T01:01:00;11.70;;;6.75;;
75207;SDS011;63795;55.684;37.864;2023-08-24T01:06:01;13.40;;;4.88;;
75207;SDS011;63795;55.684;37.864;2023-08-24T01:11:07;11.38;;;4.80;;
75207;SDS011;63795;55.684;37.864;2023-08-24T01:16:19;10.82;;;4.55;;
75207;SDS011;63795;55.684;37.864;2023-08-24T01:21:27;11.60;;;5.47;;
75207;SDS011;63795;55.684;37.864;2023-08-24T01:26:28;10.32;;;4.57;;
75207;SDS011;63795;55.684;37.864;2023-08-24T01:31:29;10.02;;;5.35;;
75207;SDS011;63795;55.684;37.864;2023-08-24T01:36:30;14.07;;;5.32;;
75207;SDS011;63795;55.684;37.864;2023-08-24T01:41:31;12.60;;;3.85;;
75207;SDS011;63795;55.684;37.864;2023-08-24T01:46:38;12.30;;;5.07;;
75207;SDS011;63795;55.684;37.864;2023-08-24T01:51:40;9.88;;;4.43;;
75207;SDS011;63795;55.684;37.864;2023-08-24T01:56:42;10.82;;;4.95;;
75207;SDS011;63795;55.684;37.864;2023-08-24T02:01:43;8.65;;;5.57;;
75207;SDS011;63795;55.684;37.864;2023-08-24T02:06:43;9.63;;;3.88;;
75207;SDS011;63795;55.684;37.864;2023-08-24T02:11:43;8.65;;;2.45;;
75207;SDS011;63795;55.684;37.864;2023-08-24T02:16:44;8.50;;;3.90;;
75207;SDS011;63795;55.684;37.864;2023-08-24T02:21:45;9.07;;;4.55;;
75207;SDS011;63795;55.684;37.864;2023-08-24T02:26:46;7.80;;;2.63;;
75207;SDS011;63795;55.684;37.864;2023-08-24T02:31:48;7.17;;;2.80;;
75207;SDS011;63795;55.684;37.864;2023-08-24T02:36:49;6.88;;;2.63;;
75207;SDS011;63795;55.684;37.864;2023-08-24T02:41:50;10.17;;;3.13;;
75207;SDS011;63795;55.684;37.864;2023-08-24T02:46:50;7.38;;;2.70;;
75207;SDS011;63795;55.684;37.864;2023-08-24T02:51:51;5.88;;;2.85;;
75207;SDS011;63795;55.684;37.864;2023-08-24T02:56:51;8.73;;;3.40;;
75207;SDS011;63795;55.684;37.864;2023-08-24T03:01:53;8.68;;;2.95;;
75207;SDS011;63795;55.684;37.864;2023-08-24T03:06:53;7.68;;;3.55;;
75207;SDS011;63795;55.684;37.864;2023-08-24T03:11:54;8.18;;;4.68;;
75207;SDS011;63795;55.684;37.864;2023-08-24T03:16:54;8.05;;;3.08;;
75207;SDS011;63795;55.684;37.864;2023-08-24T03:21:55;9.93;;;4.10;;
75207;SDS011;63795;55.684;37.864;2023-08-24T03:26:55;8.85;;;5.75;;
75207;SDS011;63795;55.684;37.864;2023-08-24T03:31:56;8.13;;;3.33;;
75207;SDS011;63795;55.684;37.864;2023-08-24T03:36:56;11.93;;;5.10;;
75207;SDS011;63795;55.684;37.864;2023-08-24T03:41:57;8.83;;;4.60;;
75207;SDS011;63795;55.684;37.864;2023-08-24T03:46:57;7.78;;;2.72;;
75207;SDS011;63795;55.684;37.864;2023-08-24T03:51:57;8.03;;;3.60;;
75207;SDS011;63795;55.684;37.864;2023-08-24T03:56:58;7.20;;;3.47;;
75207;SDS011;63795;55.684;37.864;2023-08-24T04:01:58;8.40;;;2.93;;
75207;SDS011;63795;55.684;37.864;2023-08-24T04:07:02;9.68;;;3.95;;
75207;SDS011;63795;55.684;37.864;2023-08-24T04:12:03;10.30;;;3.72;;
75207;SDS011;63795;55.684;37.864;2023-08-24T04:17:03;7.70;;;2.83;;
75207;SDS011;63795;55.684;37.864;2023-08-24T04:22:04;5.50;;;2.30;;
75207;SDS011;63795;55.684;37.864;2023-08-24T04:27:04;6.07;;;2.17;;
75207;SDS011;63795;55.684;37.864;2023-08-24T04:32:05;6.38;;;3.20;;
75207;SDS011;63795;55.684;37.864;2023-08-24T04:37:06;10.27;;;3.67;;
75207;SDS011;63795;55.684;37.864;2023-08-24T04:42:07;11.30;;;4.65;;
75207;SDS011;63795;55.684;37.864;2023-08-24T04:47:07;7.90;;;2.90;;
75207;SDS011;63795;55.684;37.864;2023-08-24T04:52:08;10.55;;;4.40;;
75207;SDS011;63795;55.684;37.864;2023-08-24T04:57:08;12.43;;;4.70;;
75207;SDS011;63795;55.684;37.864;2023-08-24T05:02:09;11.70;;;6.00;;
75207;SDS011;63795;55.684;37.864;2023-08-24T05:07:09;10.50;;;5.20;;
75207;SDS011;63795;55.684;37.864;2023-08-24T05:12:10;11.07;;;4.47;;
75207;SDS011;63795;55.684;37.864;2023-08-24T05:17:10;12.75;;;5.35;;
75207;SDS011;63795;55.684;37.864;2023-08-24T05:22:10;13.70;;;4.90;;
75207;SDS011;63795;55.684;37.864;2023-08-24T05:27:11;11.32;;;4.15;;
75207;SDS011;63795;55.684;37.864;2023-08-24T05:32:12;9.45;;;5.93;;
75207;SDS011;63795;55.684;37.864;2023-08-24T05:37:12;10.70;;;4.10;;
75207;SDS011;63795;55.684;37.864;2023-08-24T05:42:13;7.10;;;2.88;;
75207;SDS011;63795;55.684;37.864;2023-08-24T05:47:13;10.07;;;3.65;;
75207;SDS011;63795;55.684;37.864;2023-08-24T05:52:14;7.45;;;3.42;;
75207;SDS011;63795;55.684;37.864;2023-08-24T05:57:15;9.15;;;3.40;;
75207;SDS011;63795;55.684;37.864;2023-08-24T06:02:16;7.05;;;3.00;;
75207;SDS011;63795;55.684;37.864;2023-08-24T06:07:16;8.88;;;2.80;;
75207;SDS011;63795;55.684;37.864;2023-08-24T06:12:17;8.45;;;3.50;;
75207;SDS011;63795;55.684;37.864;2023-08-24T06:17:18;10.93;;;3.87;;
75207;SDS011;63795;55.684;37.864;2023-08-24T06:22:18;9.57;;;4.00;;
75207;SDS011;63795;55.684;37.864;2023-08-24T06:27:18;13.23;;;3.93;;
75207;SDS011;63795;55.684;37.864;2023-08-24T06:32:19;6.15;;;2.83;;
75207;SDS011;63795;55.684;37.864;2023-08-24T06:37:19;6.75;;;2.20;;
75207;SDS011;63795;55.684;37.864;2023-08-24T06:42:20;5.90;;;2.57;;
75207;SDS011;63795;55.684;37.864;2023-08-24T06:47:20;6.05;;;1.52;;
75207;SDS011;63795;55.684;37.864;2023-08-24T06:52:21;6.43;;;2.70;;
75207;SDS011;63795;55.684;37.864;2023-08-24T06:57:21;4.40;;;1.52;;
75207;SDS011;63795;55.684;37.864;2023-08-24T07:02:22;5.72;;;1.83;;
75207;SDS011;63795;55.684;37.864;2023-08-24T07:07:23;4.18;;;1.23;;
75207;SDS011;63795;55.684;37.864;2023-08-24T07:12:23;4.83;;;1.97;;
75207;SDS011;63795;55.684;37.864;2023-08-24T07:17:24;3.63;;;1.67;;
75207;SDS011;63795;55.684;37.864;2023-08-24T07:22:24;3.65;;;1.98;;
75207;SDS011;63795;55.684;37.864;2023-08-24T07:27:27;4.25;;;1.88;;
75207;SDS011;63795;55.684;37.864;2023-08-24T07:32:28;3.70;;;1.40;;
75207;SDS011;63795;55.684;37.864;2023-08-24T07:37:29;4.47;;;1.63;;
75207;SDS011;63795;55.684;37.864;2023-08-24T07:42:30;4.73;;;1.90;;
75207;SDS011;63795;55.684;37.864;2023-08-24T07:47:30;4.23;;;1.20;;
75207;SDS011;63795;55.684;37.864;2023-08-24T07:52:31;4.13;;;1.98;;
75207;SDS011;63795;55.684;37.864;2023-08-24T07:57:31;4.63;;;2.07;;
75207;SDS011;63795;55.684;37.864;2023-08-24T08:02:31;6.72;;;3.75;;
75207;SDS011;63795;55.684;37.864;2023-08-24T08:07:36;5.22;;;2.53;;
75207;SDS011;63795;55.684;37.864;2023-08-24T08:12:36;4.07;;;1.95;;
75207;SDS011;63795;55.684;37.864;2023-08-24T08:17:37;5.13;;;3.00;;
75207;SDS011;63795;55.684;37.864;2023-08-24T08:22:37;8.50;;;3.10;;
75207;SDS011;63795;55.684;37.864;2023-08-24T08:27:38;9.43;;;3.78;;
75207;SDS011;63795;55.684;37.864;2023-08-24T08:32:39;6.75;;;3.53;;
75207;SDS011;63795;55.684;37.864;2023-08-24T08:37:39;5.95;;;2.30;;
75207;SDS011;63795;55.684;37.864;2023-08-24T08:42:40;3.87;;;1.67;;
75207;SDS011;63795;55.684;37.864;2023-08-24T08:47:40;4.63;;;2.35;;
75207;SDS011;63795;55.684;37.864;2023-08-24T08:52:41;4.70;;;1.52;;
75207;SDS011;63795;55.684;37.864;2023-08-24T08:57:41;5.32;;;1.73;;
75207;SDS011;63795;55.684;37.864;2023-08-24T09:02:43;4.20;;;1.75;;
75207;SDS011;63795;55.684;37.864;2023-08-24T09:07:46;4.57;;;2.88;;
75207;SDS011;63795;55.684;37.864;2023-08-24T09:12:48;5.63;;;2.28;;
75207;SDS011;63795;55.684;37.864;2023-08-24T09:17:48;4.70;;;1.98;;
75207;SDS011;63795;55.684;37.864;2023-08-24T09:22:49;5.72;;;2.65;;
75207;SDS011;63795;55.684;37.864;2023-08-24T09:27:56;8.17;;;2.10;;
75207;SDS011;63795;55.684;37.864;2023-08-24T09:33:03;6.60;;;2.50;;
75207;SDS011;63795;55.684;37.864;2023-08-24T09:38:21;3.95;;;2.97;;
75207;SDS011;63795;55.684;37.864;2023-08-24T09:43:22;4.53;;;1.60;;
75207;SDS011;63795;55.684;37.864;2023-08-24T09:48:23;5.20;;;1.95;;
75207;SDS011;63795;55.684;37.864;2023-08-24T09:53:24;4.30;;;0.63;;
75207;SDS011;63795;55.684;37.864;2023-08-24T09:58:24;4.03;;;1.73;;
75207;SDS011;63795;55.684;37.864;2023-08-24T10:03:26;5.97;;;1.92;;
75207;SDS011;63795;55.684;37.864;2023-08-24T10:08:28;2.72;;;1.45;;
75207;SDS011;63795;55.684;37.864;2023-08-24T10:18:56;3.72;;;1.20;;
75207;SDS011;63795;55.684;37.864;2023-08-24T10:23:57;3.05;;;0.68;;
75207;SDS011;63795;55.684;37.864;2023-08-24T10:28:58;3.15;;;1.23;;
75207;SDS011;63795;55.684;37.864;2023-08-24T10:33:59;7.07;;;2.47;;
75207;SDS011;63795;55.684;37.864;2023-08-24T10:39:02;4.55;;;2.35;;
75207;SDS011;63795;55.684;37.864;2023-08-24T10:44:07;4.53;;;2.10;;
75207;SDS011;63795;55.684;37.864;2023-08-24T10:49:19;4.15;;;2.40;;
75207;SDS011;63795;55.684;37.864;2023-08-24T10:54:29;7.40;;;2.30;;
75207;SDS011;63795;55.684;37.864;2023-08-24T10:59:34;3.25;;;2.15;;
75207;SDS011;63795;55.684;37.864;2023-08-24T11:04:35;4.07;;;1.40;;
75207;SDS011;63795;55.684;37.864;2023-08-24T11:09:45;4.43;;;2.17;;
75207;SDS011;63795;55.684;37.864;2023-08-24T11:14:51;5.45;;;1.60;;
75207;SDS011;63795;55.684;37.864;2023-08-24T11:20:00;4.20;;;1.67;;
75207;SDS011;63795;55.684;37.864;2023-08-24T11:25:01;5.03;;;2.55;;
75207;SDS011;63795;55.684;37.864;2023-08-24T11:30:01;5.70;;;1.67;;
75207;SDS011;63795;55.684;37.864;2023-08-24T11:35:05;13.65;;;6.90;;
75207;SDS011;63795;55.684;37.864;2023-08-24T11:40:06;5.63;;;1.75;;
75207;SDS011;63795;55.684;37.864;2023-08-24T11:45:17;5.65;;;2.85;;
75207;SDS011;63795;55.684;37.864;2023-08-24T11:50:17;7.90;;;2.58;;
75207;SDS011;63795;55.684;37.864;2023-08-24T11:55:18;4.43;;;2.45;;
75207;SDS011;63795;55.684;37.864;2023-08-24T12:00:22;4.18;;;2.47;;
75207;SDS011;63795;55.684;37.864;2023-08-24T12:05:24;18.35;;;9.63;;
75207;SDS011;63795;55.684;37.864;2023-08-24T12:10:25;4.28;;;2.70;;
75207;SDS011;63795;55.684;37.864;2023-08-24T12:15:27;7.07;;;3.78;;
75207;SDS011;63795;55.684;37.864;2023-08-24T12:20:28;2.97;;;1.70;;
75207;SDS011;63795;55.684;37.864;2023-08-24T12:25:30;1.40;;;0.65;;
75207;SDS011;63795;55.684;37.864;2023-08-24T12:30:31;1.35;;;0.43;;
75207;SDS011;63795;55.684;37.864;2023-08-24T12:35:33;1.63;;;1.08;;
75207;SDS011;63795;55.684;37.864;2023-08-24T12:40:34;3.15;;;1.13;;
75207;SDS011;63795;55.684;37.864;2023-08-24T12:45:34;2.40;;;2.20;;
75207;SDS011;63795;55.684;37.864;2023-08-24T12:50:37;1.67;;;0.75;;
75207;SDS011;63795;55.684;37.864;2023-08-24T12:55:39;2.28;;;0.80;;
75207;SDS011;63795;55.684;37.864;2023-08-24T13:00:42;2.13;;;0.65;;
75207;SDS011;63795;55.684;37.864;2023-08-24T13:05:43;1.88;;;0.75;;
75207;SDS011;63795;55.684;37.864;2023-08-24T13:10:43;5.93;;;0.88;;
75207;SDS011;63795;55.684;37.864;2023-08-24T13:15:43;2.43;;;0.83;;
75207;SDS011;63795;55.684;37.864;2023-08-24T13:20:44;1.40;;;0.23;;
75207;SDS011;63795;55.684;37.864;2023-08-24T13:25:45;1.30;;;0.93;;
75207;SDS011;63795;55.684;37.864;2023-08-24T13:30:45;3.97;;;0.57;;
75207;SDS011;63795;55.684;37.864;2023-08-24T13:35:46;2.25;;;1.00;;
75207;SDS011;63795;55.684;37.864;2023-08-24T13:40:46;2.10;;;1.48;;
75207;SDS011;63795;55.684;37.864;2023-08-24T13:45:47;1.60;;;0.70;;
75207;SDS011;63795;55.684;37.864;2023-08-24T13:50:50;2.88;;;1.02;;
75207;SDS011;63795;55.684;37.864;2023-08-24T13:55:54;1.80;;;1.50;;
75207;SDS011;63795;55.684;37.864;2023-08-24T14:00:55;2.67;;;1.73;;
75207;SDS011;63795;55.684;37.864;2023-08-24T14:05:57;2.20;;;1.13;;
75207;SDS011;63795;55.684;37.864;2023-08-24T14:10:58;2.20;;;0.68;;
75207;SDS011;63795;55.684;37.864;2023-08-24T14:15:58;3.53;;;1.95;;
75207;SDS011;63795;55.684;37.864;2023-08-24T14:20:59;2.88;;;0.93;;
75207;SDS011;63795;55.684;37.864;2023-08-24T14:25:59;2.75;;;1.92;;
75207;SDS011;63795;55.684;37.864;2023-08-24T14:31:00;2.30;;;0.70;;
75207;SDS011;63795;55.684;37.864;2023-08-24T14:36:00;3.37;;;0.73;;
75207;SDS011;63795;55.684;37.864;2023-08-24T14:41:01;2.07;;;0.67;;
75207;SDS011;63795;55.684;37.864;2023-08-24T14:46:01;3.08;;;0.80;;
75207;SDS011;63795;55.684;37.864;2023-08-24T14:51:02;4.68;;;0.93;;
75207;SDS011;63795;55.684;37.864;2023-08-24T14:56:02;3.10;;;0.93;;
75207;SDS011;63795;55.684;37.864;2023-08-24T15:01:03;1.90;;;0.63;;
75207;SDS011;63795;55.684;37.864;2023-08-24T15:06:04;2.08;;;1.27;;
75207;SDS011;63795;55.684;37.864;2023-08-24T15:11:05;4.25;;;1.58;;
75207;SDS011;63795;55.684;37.864;2023-08-24T15:16:05;2.38;;;0.88;;
75207;SDS011;63795;55.684;37.864;2023-08-24T15:21:06;2.75;;;1.42;;
75207;SDS011;63795;55.684;37.864;2023-08-24T15:26:07;3.25;;;2.38;;
75207;SDS011;63795;55.684;37.864;2023-08-24T15:31:08;4.15;;;1.17;;
75207;SDS011;63795;55.684;37.864;2023-08-24T15:36:09;3.30;;;1.33;;
75207;SDS011;63795;55.684;37.864;2023-08-24T15:41:09;3.33;;;0.20;;
75207;SDS011;63795;55.684;37.864;2023-08-24T15:46:10;4.32;;;0.95;;
75207;SDS011;63795;55.684;37.864;2023-08-24T15:51:10;2.70;;;0.50;;
75207;SDS011;63795;55.684;37.864;2023-08-24T15:56:11;5.35;;;0.50;;
75207;SDS011;63795;55.684;37.864;2023-08-24T16:01:11;1.93;;;0.87;;
75207;SDS011;63795;55.684;37.864;2023-08-24T16:06:12;2.42;;;1.33;;
75207;SDS011;63795;55.684;37.864;2023-08-24T16:11:12;2.93;;;0.77;;
75207;SDS011;63795;55.684;37.864;2023-08-24T16:16:14;2.42;;;1.55;;
75207;SDS011;63795;55.684;37.864;2023-08-24T16:21:14;2.15;;;0.68;;
75207;SDS011;63795;55.684;37.864;2023-08-24T16:26:14;3.67;;;2.00;;
75207;SDS011;63795;55.684;37.864;2023-08-24T16:31:15;4.07;;;2.20;;
75207;SDS011;63795;55.684;37.864;2023-08-24T16:36:16;2.85;;;1.40;;
75207;SDS011;63795;55.684;37.864;2023-08-24T16:41:16;2.13;;;0.23;;
75207;SDS011;63795;55.684;37.864;2023-08-24T16:46:17;3.40;;;1.47;;
75207;SDS011;63795;55.684;37.864;2023-08-24T16:51:18;10.35;;;0.60;;
75207;SDS011;63795;55.684;37.864;2023-08-24T16:56:19;3.08;;;1.42;;
75207;SDS011;63795;55.684;37.864;2023-08-24T17:01:19;2.72;;;0.98;;
75207;SDS011;63795;55.684;37.864;2023-08-24T17:06:20;2.90;;;0.55;;
75207;SDS011;63795;55.684;37.864;2023-08-24T17:11:20;5.50;;;0.80;;
75207;SDS011;63795;55.684;37.864;2023-08-24T17:16:24;7.07;;;1.50;;
75207;SDS011;63795;55.684;37.864;2023-08-24T17:21:27;3.60;;;1.23;;
75207;SDS011;63795;55.684;37.864;2023-08-24T17:26:27;2.38;;;0.98;;
75207;SDS011;63795;55.684;37.864;2023-08-24T17:31:31;3.10;;;1.52;;
75207;SDS011;63795;55.684;37.864;2023-08-24T17:36:31;2.17;;;0.97;;
75207;SDS011;63795;55.684;37.864;2023-08-24T17:41:32;3.10;;;1.60;;
75207;SDS011;63795;55.684;37.864;2023-08-24T17:46:33;2.20;;;1.17;;
75207;SDS011;63795;55.684;37.864;2023-08-24T17:51:34;6.85;;;0.98;;
75207;SDS011;63795;55.684;37.864;2023-08-24T17:56:35;9.82;;;4.28;;
75207;SDS011;63795;55.684;37.864;2023-08-24T18:01:36;3.25;;;2.47;;
75207;SDS011;63795;55.684;37.864;2023-08-24T18:06:36;4.15;;;1.00;;
75207;SDS011;63795;55.684;37.864;2023-08-24T18:11:36;4.38;;;0.60;;
75207;SDS011;63795;55.684;37.864;2023-08-24T18:16:37;3.78;;;2.08;;
75207;SDS011;63795;55.684;37.864;2023-08-24T18:21:38;7.40;;;3.53;;
75207;SDS011;63795;55.684;37.864;2023-08-24T18:26:38;10.60;;;4.90;;
75207;SDS011;63795;55.684;37.864;2023-08-24T18:31:39;3.85;;;2.10;;
75207;SDS011;63795;55.684;37.864;2023-08-24T18:36:40;7.65;;;2.33;;
75207;SDS011;63795;55.684;37.864;2023-08-24T18:41:41;3.03;;;2.38;;
75207;SDS011;63795;55.684;37.864;2023-08-24T18:46:41;3.45;;;1.27;;
75207;SDS011;63795;55.684;37.864;2023-08-24T18:51:42;2.88;;;1.38;;
75207;SDS011;63795;55.684;37.864;2023-08-24T18:56:43;3.83;;;1.60;;
75207;SDS011;63795;55.684;37.864;2023-08-24T19:01:43;3.60;;;1.55;;
75207;SDS011;63795;55.684;37.864;2023-08-24T19:06:43;5.80;;;2.03;;
75207;SDS011;63795;55.684;37.864;2023-08-24T19:11:44;4.10;;;2.35;;
75207;SDS011;63795;55.684;37.864;2023-08-24T19:16:45;2.97;;;1.88;;
75207;SDS011;63795;55.684;37.864;2023-08-24T19:21:45;5.00;;;1.42;;
75207;SDS011;63795;55.684;37.864;2023-08-24T19:26:46;11.13;;;5.13;;
75207;SDS011;63795;55.684;37.864;2023-08-24T19:31:46;6.03;;;1.88;;
75207;SDS011;63795;55.684;37.864;2023-08-24T19:36:47;2.53;;;1.55;;
75207;SDS011;63795;55.684;37.864;2023-08-24T19:41:47;3.67;;;2.22;;
75207;SDS011;63795;55.684;37.864;2023-08-24T19:46:48;2.97;;;0.60;;
75207;SDS011;63795;55.684;37.864;2023-08-24T19:51:48;3.55;;;0.93;;
75207;SDS011;63795;55.684;37.864;2023-08-24T19:56:49;5.40;;;1.33;;
75207;SDS011;63795;55.684;37.864;2023-08-24T20:01:49;4.80;;;0.47;;
75207;SDS011;63795;55.684;37.864;2023-08-24T20:06:49;4.63;;;2.70;;
75207;SDS011;63795;55.684;37.864;2023-08-24T20:11:50;2.20;;;0.85;;
75207;SDS011;63795;55.684;37.864;2023-08-24T20:16:51;3.97;;;0.97;;
75207;SDS011;63795;55.684;37.864;2023-08-24T20:21:51;3.60;;;0.70;;
75207;SDS011;63795;55.684;37.864;2023-08-24T20:26:53;3.70;;;1.80;;
75207;SDS011;63795;55.684;37.864;2023-08-24T20:31:54;6.72;;;1.20;;
75207;SDS011;63795;55.684;37.864;2023-08-24T20:36:54;2.63;;;1.45;;
75207;SDS011;63795;55.684;37.864;2023-08-24T20:42:10;5.13;;;2.03;;
75207;SDS011;63795;55.684;37.864;2023-08-24T20:47:14;7.82;;;2.50;;
75207;SDS011;63795;55.684;37.864;2023-08-24T20:52:15;3.78;;;0.85;;
75207;SDS011;63795;55.684;37.864;2023-08-24T20:57:17;4.15;;;0.95;;
75207;SDS011;63795;55.684;37.864;2023-08-24T21:02:18;5.57;;;1.42;;
75207;SDS011;63795;55.684;37.864;2023-08-24T21:07:18;2.93;;;1.07;;
75207;SDS011;63795;55.684;37.864;2023-08-24T21:12:18;3.55;;;1.27;;
75207;SDS011;63795;55.684;37.864;2023-08-24T21:17:19;3.40;;;1.63;;
75207;SDS011;63795;55.684;37.864;2023-08-24T21:22:20;4.63;;;2.97;;
75207;SDS011;63795;55.684;37.864;2023-08-24T21:27:21;4.70;;;0.73;;
75207;SDS011;63795;55.684;37.864;2023-08-24T21:32:22;3.20;;;1.10;;
75207;SDS011;63795;55.684;37.864;2023-08-24T21:37:23;2.22;;;0.35;;
75207;SDS011;63795;55.684;37.864;2023-08-24T21:42:24;2.45;;;1.75;;
75207;SDS011;63795;55.684;37.864;2023-08-24T21:47:24;6.32;;;0.50;;
75207;SDS011;63795;55.684;37.864;2023-08-24T21:52:25;2.47;;;0.53;;
75207;SDS011;63795;55.684;37.864;2023-08-24T21:57:25;3.50;;;1.42;;
75207;SDS011;63795;55.684;37.864;2023-08-24T22:02:25;3.15;;;1.77;;
75207;SDS011;63795;55.684;37.864;2023-08-24T22:07:26;3.35;;;1.98;;
75207;SDS011;63795;55.684;37.864;2023-08-24T22:12:27;5.63;;;0.77;;
75207;SDS011;63795;55.684;37.864;2023-08-24T22:17:27;3.83;;;1.77;;
75207;SDS011;63795;55.684;37.864;2023-08-24T22:22:28;3.55;;;1.95;;
75207;SDS011;63795;55.684;37.864;2023-08-24T22:27:28;4.32;;;2.65;;
75207;SDS011;63795;55.684;37.864;2023-08-24T22:32:31;2.95;;;0.90;;
75207;SDS011;63795;55.684;37.864;2023-08-24T22:37:32;3.13;;;2.53;;
75207;SDS011;63795;55.684;37.864;2023-08-24T22:42:33;2.35;;;0.80;;
75207;SDS011;63795;55.684;37.864;2023-08-24T22:47:33;4.75;;;1.73;;
75207;SDS011;63795;55.684;37.864;2023-08-24T22:52:34;3.70;;;1.10;;
75207;SDS011;63795;55.684;37.864;2023-08-24T22:57:35;3.40;;;1.20;;
75207;SDS011;63795;55.684;37.864;2023-08-24T23:02:36;4.30;;;1.60;;
75207;SDS011;63795;55.684;37.864;2023-08-24T23:07:37;5.68;;;2.35;;
75207;SDS011;63795;55.684;37.864;2023-08-24T23:12:38;4.68;;;0.93;;
75207;SDS011;63795;55.684;37.864;2023-08-24T23:17:38;4.13;;;2.13;;
75207;SDS011;63795;55.684;37.864;2023-08-24T23:22:39;4.57;;;2.50;;
75207;SDS011;63795;55.684;37.864;2023-08-24T23:27:40;4.45;;;1.15;;
75207;SDS011;63795;55.684;37.864;2023-08-24T23:32:40;2.60;;;1.95;;
75207;SDS011;63795;55.684;37.864;2023-08-24T23:37:41;4.82;;;1.67;;
75207;SDS011;63795;55.684;37.864;2023-08-24T23:42:41;2.88;;;1.80;;
75207;SDS011;63795;55.684;37.864;2023-08-24T23:47:42;3.20;;;1.30;;
75207;SDS011;63795;55.684;37.864;2023-08-24T23:52:43;5.93;;;1.77;;
75207;SDS011;63795;55.684;37.864;2023-08-24T23:57:43;9.85;;;0.50;;
